METAR és
SPECI
METAR LHBP 070530Z 10012KT 9999 FEW049 SCT200 00/00 Q1021 NOSIG=
METAR LHBP 070500Z 11010KT 9999 FEW049 SCT200 00/M00 Q1021 NOSIG=
METAR LHBP 070430Z 10012KT 9999 FEW049 SCT200 M00/M00 Q1021 NOSIG=
METAR LHBP 070400Z 10011KT CAVOK M00/M00 Q1021 NOSIG=
METAR LHBP 070330Z 10012KT CAVOK 00/00 Q1022 NOSIG=
METAR LHBP 070300Z 10010KT CAVOK 00/00 Q1022 NOSIG=
METAR LHBP 070230Z 10010KT CAVOK M00/M00 Q1022 NOSIG=
METAR LHBP 070200Z 10010KT CAVOK 00/00 Q1022 NOSIG=
METAR LHBP 070130Z 10008KT CAVOK M00/M00 Q1023 NOSIG=
METAR LHBP 070100Z 10008KT CAVOK M00/M00 Q1023 NOSIG=
METAR LHBP 070030Z 10010KT 8000 NSC 00/00 Q1023 NOSIG=
METAR LHBP 070000Z 10010KT 8000 NSC 01/01 Q1023 NOSIG=
METAR LHBP 062330Z 10010KT 8000 NSC 01/01 Q1024 NOSIG=
METAR LHBP 062300Z 10010KT 8000 NSC 01/01 Q1024 NOSIG=
METAR LHBP 062230Z 09009KT 8000 NSC 01/01 Q1024 NOSIG=
TAF
TAF LHBP 070500Z 0706/0806 10011KT CAVOK BECMG 0708/0711 16015KT BECMG 0716/0719 13008KT BECMG 0803/0805 BKN045 TEMPO 0805/0806 -RA SCT010 BKN030=
GAMET
FAHU41 LHBM 070500
LHCC GAMET VALID 070600/071200 LHBP-
BUDAPEST FIR BLW FL100
SECN 1
TURB: MOD SFC/5000FT AMSL W OF LINE N4748 E01842 - N4624 E01643
SIGMETS APPLICABLE: NIL=
OMSZ: 2016. február 7. 05:44 (04:44  UTC)
[FAHU41]
AIRMET
Nincs érvényes távirat! 
WAHU41 LHBM 231515
LHCC AIRMET 01 VALID 231515/231800 LHBP-
LHCC BUDAPEST FIR SFC VIS 1000-4000 M IN SN BR AND BKN/OVC CLD
500-1000/XXX FT AGL FCST W OF E01830 MOV E NC=
OMSZ: 2016. január 23. 16:24 (15:24  UTC)
[WAHU41]
SIGMET
Nincs érvényes távirat! 
WSHU31 LHBM 261540
LHCC SIGMET 01 VALID 261540/261840 LHBP-
LHCC BUDAPEST FIR SEV ICE (FZRA) FCST N OF N4815 SFC/2500FT
MOV SE WKN=
OMSZ: 2016. január 26. 16:42 (15:42  UTC)
[WSHU31]
SIGMET
Vulkáni hamufelhő
Nincs érvényes távirat! 
WVHU31 LHBM 271515 CCA
LHCC SIGMET 03 VALID 271515/271800 LHBP-
LHCC BUDAPEST FIR EXERCISE VOLCEX12/01
CNL VA SIGMET 02 271200/271800
EXERCISE EXERCISE EXERCISE VOLCEX12/01=
OMSZ: 2015. április 14. 14:15 (13:15  UTC)
[WVHU31]